createdAt,value
2019-03-26T00:02:01.031Z,7.20
2019-03-26T00:07:54.972Z,7.70
2019-03-26T00:10:44.912Z,7.33
2019-03-26T00:13:35.070Z,7.57
2019-03-26T00:16:06.440Z,7.53
2019-03-26T00:18:56.566Z,7.10
2019-03-26T00:21:46.721Z,7.40
2019-03-26T00:24:37.107Z,7.27
2019-03-26T00:30:17.411Z,6.47
2019-03-26T00:33:08.355Z,7.40
2019-03-26T00:36:02.574Z,6.73
2019-03-26T00:38:55.878Z,6.33
2019-03-26T00:41:46.682Z,7.10
2019-03-26T00:44:18.029Z,7.97
2019-03-26T00:46:54.835Z,7.90
2019-03-26T00:49:44.785Z,8.17
2019-03-26T00:52:35.038Z,8.07
2019-03-26T00:55:27.805Z,8.03
2019-03-26T00:58:17.877Z,8.20
2019-03-26T01:01:08.581Z,7.73
2019-03-26T01:03:58.892Z,7.17
2019-03-26T01:06:30.229Z,7.47
2019-03-26T01:09:20.599Z,7.87
2019-03-26T01:12:10.613Z,8.00
2019-03-26T01:14:42.033Z,7.97
2019-03-26T01:17:32.416Z,7.43
2019-03-26T01:20:22.324Z,7.83
2019-03-26T01:23:12.539Z,8.20
2019-03-26T01:26:03.277Z,8.10
2019-03-26T01:28:53.473Z,8.17
2019-03-26T01:31:46.311Z,8.60
2019-03-26T01:34:45.960Z,7.43
2019-03-26T01:37:16.620Z,9.13
2019-03-26T01:39:49.278Z,7.93
2019-03-26T01:48:33.462Z,9.43
2019-03-26T01:54:45.940Z,8.93
2019-03-26T01:57:28.063Z,8.97
2019-03-26T02:00:10.851Z,8.87
2019-03-26T02:05:53.844Z,8.67
2019-03-26T02:09:02.570Z,8.57
2019-03-26T02:12:12.021Z,9.73
2019-03-26T02:18:18.020Z,8.93
2019-03-26T02:20:44.335Z,8.43
2019-03-26T02:23:38.948Z,8.67
2019-03-26T02:26:32.581Z,8.70
2019-03-26T02:29:03.763Z,8.00
2019-03-26T02:31:55.494Z,8.50
2019-03-26T02:34:45.897Z,7.67
2019-03-26T02:37:36.393Z,8.20
2019-03-26T02:40:26.483Z,8.83
2019-03-26T02:43:16.837Z,8.30
2019-03-26T02:46:07.174Z,8.80
2019-03-26T02:48:57.456Z,8.57
2019-03-26T02:51:50.804Z,7.67
2019-03-26T02:54:40.635Z,7.93
2019-03-26T02:57:30.856Z,8.67
2019-03-26T03:00:12.242Z,7.67
2019-03-26T03:02:53.077Z,8.13
2019-03-26T03:05:36.212Z,8.47
2019-03-26T03:10:59.025Z,8.80
2019-03-26T03:13:41.219Z,8.57
2019-03-26T03:18:58.877Z,8.57
2019-03-26T03:21:49.117Z,8.33
2019-03-26T03:24:38.964Z,9.33
2019-03-26T03:27:28.924Z,9.80
2019-03-26T03:32:33.239Z,8.97
2019-03-26T03:35:23.313Z,8.77
2019-03-26T03:38:13.421Z,8.47
2019-03-26T03:41:05.057Z,8.00
2019-03-26T03:43:55.582Z,8.73
2019-03-26T03:49:47.958Z,8.47
2019-03-26T03:52:56.410Z,7.93
2019-03-26T03:59:17.661Z,8.63
2019-03-26T04:01:48.856Z,9.40
2019-03-26T04:04:39.022Z,7.43
2019-03-26T04:07:29.740Z,8.13
2019-03-26T04:10:19.739Z,7.50
2019-03-26T04:13:10.066Z,8.10
2019-03-26T04:16:00.955Z,8.07
2019-03-26T04:18:33.826Z,7.90
2019-03-26T04:21:07.034Z,8.90
2019-03-26T04:23:57.094Z,8.53
2019-03-26T04:26:47.136Z,8.97
2019-03-26T04:29:37.405Z,8.43
2019-03-26T04:32:27.505Z,8.53
2019-03-26T04:35:17.725Z,8.37
2019-03-26T04:38:07.529Z,8.43
2019-03-26T04:40:57.811Z,8.30
2019-03-26T04:47:10.155Z,8.47
2019-03-26T04:49:59.943Z,8.27
2019-03-26T04:52:50.079Z,7.40
2019-03-26T04:55:40.613Z,8.00
2019-03-26T04:58:31.123Z,8.17
2019-03-26T05:01:21.458Z,8.50
2019-03-26T05:04:12.067Z,8.50
2019-03-26T05:10:03.515Z,8.73
2019-03-26T05:12:44.181Z,8.60
2019-03-26T05:15:34.656Z,8.40
2019-03-26T05:18:25.389Z,9.27
2019-03-26T05:21:15.745Z,8.70
2019-03-26T05:24:05.798Z,8.87
2019-03-26T05:26:37.163Z,9.30
2019-03-26T05:29:27.867Z,8.87
2019-03-26T05:32:17.663Z,8.70
2019-03-26T05:35:28.195Z,7.53
2019-03-26T05:37:59.493Z,8.90
2019-03-26T05:40:30.671Z,8.60
2019-03-26T05:43:02.701Z,8.40
2019-03-26T05:45:52.806Z,9.40
2019-03-26T05:48:24.076Z,9.27
2019-03-26T05:51:15.697Z,9.23
2019-03-26T05:53:46.805Z,8.90
2019-03-26T05:56:37.444Z,9.90
2019-03-26T05:59:27.463Z,9.03
2019-03-26T06:02:15.085Z,13.13
2019-03-26T06:04:43.152Z,9.97
2019-03-26T06:07:14.558Z,8.97
2019-03-26T06:09:46.000Z,8.50
2019-03-26T06:12:17.940Z,9.87
2019-03-26T06:14:50.228Z,10.23
2019-03-26T06:17:21.735Z,9.60
2019-03-26T06:20:12.427Z,9.00
2019-03-26T06:22:43.969Z,9.27
2019-03-26T06:25:15.472Z,9.60
2019-03-26T06:28:08.343Z,9.03
2019-03-26T06:30:58.714Z,8.57
2019-03-26T06:33:31.450Z,9.40
2019-03-26T06:36:03.419Z,9.10
2019-03-26T06:38:35.339Z,13.47
2019-03-26T06:41:28.249Z,9.43
2019-03-26T06:44:18.933Z,8.77
2019-03-26T06:46:51.089Z,8.70
2019-03-26T06:49:43.529Z,9.00
2019-03-26T06:53:00.861Z,10.00
2019-03-26T06:55:34.307Z,9.67
2019-03-26T06:58:06.088Z,9.63
2019-03-26T07:00:37.393Z,10.33
2019-03-26T07:03:08.758Z,9.73
2019-03-26T07:06:00.668Z,10.17
2019-03-26T07:08:52.555Z,9.10
2019-03-26T07:11:42.903Z,10.10
2019-03-26T07:14:14.020Z,9.97
2019-03-26T07:17:04.021Z,10.20
2019-03-26T07:19:36.887Z,11.80
2019-03-26T07:22:27.434Z,11.13
2019-03-26T07:25:00.931Z,12.00
2019-03-26T07:27:35.314Z,11.03
2019-03-26T07:30:07.850Z,11.90
2019-03-26T07:32:39.622Z,11.23
2019-03-26T07:35:14.056Z,12.07
2019-03-26T07:37:45.963Z,11.70
2019-03-26T07:40:17.642Z,11.80
2019-03-26T07:45:59.832Z,11.87
2019-03-26T07:48:32.002Z,11.70
2019-03-26T07:51:04.853Z,11.73
2019-03-26T07:53:57.019Z,11.90
2019-03-26T07:56:39.716Z,12.33
2019-03-26T07:59:14.483Z,11.03
2019-03-26T08:04:41.289Z,10.80
2019-03-26T08:07:13.674Z,11.67
2019-03-26T08:10:04.323Z,11.83
2019-03-26T08:13:12.883Z,10.70
2019-03-26T08:16:02.992Z,11.43
2019-03-26T08:18:53.359Z,10.67
2019-03-26T08:21:44.491Z,11.17
2019-03-26T08:24:35.124Z,11.00
2019-03-26T08:27:25.111Z,11.17
2019-03-26T08:29:56.395Z,11.37
2019-03-26T08:32:37.422Z,10.73
2019-03-26T08:35:08.934Z,10.70
2019-03-26T08:38:11.645Z,10.73
2019-03-26T08:40:51.186Z,11.70
2019-03-26T08:43:22.896Z,11.23
2019-03-26T08:45:55.767Z,10.23
2019-03-26T08:48:46.239Z,10.67
2019-03-26T08:51:36.211Z,10.40
2019-03-26T08:54:28.329Z,10.93
2019-03-26T08:56:59.665Z,10.60
2019-03-26T08:59:41.214Z,11.60
2019-03-26T09:02:12.635Z,10.93
2019-03-26T09:05:04.492Z,11.23
2019-03-26T09:07:54.466Z,11.13
2019-03-26T09:10:51.697Z,11.30
2019-03-26T09:13:40.708Z,11.10
2019-03-26T09:16:22.463Z,9.60
2019-03-26T09:18:55.624Z,9.73
2019-03-26T09:21:46.196Z,9.53
2019-03-26T09:24:18.349Z,8.70
2019-03-26T09:27:08.959Z,8.43
2019-03-26T09:30:00.792Z,8.13
2019-03-26T09:32:51.383Z,7.50
2019-03-26T09:35:43.236Z,7.47
2019-03-26T09:41:29.906Z,7.80
2019-03-26T09:44:21.295Z,7.60
2019-03-26T09:47:16.514Z,7.80
2019-03-26T09:50:03.081Z,7.33
2019-03-26T09:52:55.911Z,7.87
2019-03-26T09:55:28.102Z,7.93
2019-03-26T09:58:17.974Z,6.70
2019-03-26T10:03:42.590Z,6.73
2019-03-26T10:06:23.418Z,7.33
2019-03-26T10:08:52.980Z,6.80
2019-03-26T10:11:47.675Z,7.20
2019-03-26T10:18:06.131Z,7.00
2019-03-26T10:20:41.925Z,7.13
2019-03-26T10:23:18.875Z,7.50
2019-03-26T10:29:36.101Z,7.37
2019-03-26T10:32:18.096Z,7.87
2019-03-26T10:35:08.502Z,7.70
2019-03-26T10:38:01.653Z,7.77
2019-03-26T10:40:33.839Z,7.97
2019-03-26T10:43:06.042Z,8.20
2019-03-26T10:45:56.798Z,7.77
2019-03-26T10:48:47.622Z,7.13
2019-03-26T10:51:39.055Z,7.87
2019-03-26T10:54:25.857Z,6.43
2019-03-26T10:57:09.257Z,6.97
2019-03-26T10:59:53.903Z,6.83
2019-03-26T11:02:26.472Z,6.47
2019-03-26T11:05:03.681Z,5.90
2019-03-26T11:07:36.356Z,6.17
2019-03-26T11:10:28.843Z,6.30
2019-03-26T11:13:06.636Z,5.60
2019-03-26T11:15:56.796Z,5.90
2019-03-26T11:18:47.995Z,6.27
2019-03-26T11:21:30.693Z,6.07
2019-03-26T11:24:06.088Z,5.50
2019-03-26T11:26:56.137Z,5.53
2019-03-26T11:29:46.260Z,6.00
2019-03-26T11:32:28.771Z,5.17
2019-03-26T11:35:02.193Z,5.57
2019-03-26T11:38:18.672Z,5.57
2019-03-26T11:41:08.926Z,4.77
2019-03-26T11:43:59.808Z,3.77
2019-03-26T11:47:10.425Z,4.20
2019-03-26T11:49:45.842Z,4.13
2019-03-26T11:52:18.279Z,3.77
2019-03-26T11:54:53.593Z,4.13
2019-03-26T11:57:45.034Z,4.00
2019-03-26T12:00:42.036Z,4.20
2019-03-26T12:03:33.458Z,3.50
2019-03-26T12:09:46.538Z,3.60
2019-03-26T12:15:55.856Z,3.40
2019-03-26T12:18:48.771Z,3.80
2019-03-26T12:21:20.821Z,3.40
2019-03-26T12:24:11.944Z,3.57
2019-03-26T12:27:09.266Z,3.40
2019-03-26T12:30:05.038Z,3.40
2019-03-26T12:39:03.110Z,3.20
2019-03-26T12:41:38.293Z,3.63
2019-03-26T12:44:28.500Z,3.47
2019-03-26T12:47:19.120Z,3.40
2019-03-26T12:53:12.549Z,2.90
2019-03-26T12:55:54.945Z,3.33
2019-03-26T12:59:05.557Z,3.37
2019-03-26T13:02:14.559Z,3.77
2019-03-26T13:04:52.636Z,3.00
2019-03-26T13:07:48.076Z,3.00
2019-03-26T13:10:38.719Z,2.97
2019-03-26T13:13:33.005Z,3.37
2019-03-26T13:16:24.191Z,3.20
2019-03-26T13:19:15.882Z,3.07
2019-03-26T13:22:23.038Z,3.17
2019-03-26T13:25:19.759Z,3.10
2019-03-26T13:27:51.532Z,3.07
2019-03-26T13:30:23.259Z,3.20
2019-03-26T13:33:13.761Z,3.37
2019-03-26T13:36:03.709Z,3.50
2019-03-26T13:38:54.329Z,3.40
2019-03-26T13:45:14.357Z,3.00
2019-03-26T13:54:01.168Z,3.37
2019-03-26T13:57:10.121Z,3.23
2019-03-26T14:00:19.875Z,3.30
2019-03-26T14:02:51.322Z,3.10
2019-03-26T14:05:42.174Z,3.10
2019-03-26T14:08:15.974Z,2.70
2019-03-26T14:10:47.643Z,2.63
2019-03-26T14:13:29.849Z,2.83
2019-03-26T14:16:01.188Z,2.67
2019-03-26T14:18:51.948Z,2.70
2019-03-26T14:21:40.684Z,2.90
2019-03-26T14:24:31.183Z,2.90
2019-03-26T14:27:22.335Z,3.30
2019-03-26T14:29:54.375Z,4.03
2019-03-26T14:32:28.909Z,4.00
2019-03-26T14:35:42.683Z,4.00
2019-03-26T14:38:33.436Z,4.30
2019-03-26T14:41:16.556Z,4.27
2019-03-26T14:44:06.639Z,3.80
2019-03-26T14:46:58.098Z,3.93
2019-03-26T14:49:31.273Z,3.53
2019-03-26T14:52:18.454Z,3.90
2019-03-26T14:55:09.305Z,3.27
2019-03-26T14:57:52.195Z,3.40
2019-03-26T15:00:34.891Z,3.10
2019-03-26T15:03:19.281Z,2.90
2019-03-26T15:08:38.735Z,2.90
2019-03-26T15:11:13.746Z,3.40
2019-03-26T15:13:49.780Z,3.20
2019-03-26T15:16:21.476Z,3.60
2019-03-26T15:18:53.745Z,3.83
2019-03-26T15:21:45.000Z,3.43
2019-03-26T15:24:18.561Z,3.30
2019-03-26T15:27:13.877Z,3.80
2019-03-26T15:29:46.147Z,3.30
2019-03-26T15:32:17.900Z,3.13
2019-03-26T15:37:46.556Z,2.97
2019-03-26T15:40:36.571Z,3.23
2019-03-26T15:44:03.948Z,4.57
2019-03-26T15:46:50.937Z,4.17
2019-03-26T15:49:23.720Z,5.10
2019-03-26T15:55:01.428Z,4.90
2019-03-26T15:57:43.021Z,4.90
2019-03-26T16:03:10.560Z,4.50
2019-03-26T16:05:43.248Z,4.50
2019-03-26T16:08:19.375Z,4.93
2019-03-26T16:10:52.350Z,6.07
2019-03-26T16:13:43.191Z,6.10
2019-03-26T16:16:17.798Z,5.50
2019-03-26T16:18:50.880Z,6.77
2019-03-26T16:21:22.313Z,5.90
2019-03-26T16:23:53.731Z,5.93
2019-03-26T16:26:26.618Z,6.27
2019-03-26T16:29:17.653Z,6.30
2019-03-26T16:31:51.277Z,6.07
2019-03-26T16:34:29.237Z,7.40
2019-03-26T16:37:01.989Z,7.40
2019-03-26T16:39:33.156Z,8.90
2019-03-26T16:42:21.726Z,8.33
2019-03-26T16:44:53.445Z,8.97
2019-03-26T16:47:28.120Z,9.57
2019-03-26T16:50:02.463Z,8.83
2019-03-26T16:52:33.828Z,9.63
2019-03-26T16:55:45.642Z,10.07
2019-03-26T16:58:18.476Z,9.47
2019-03-26T17:01:09.399Z,10.27
2019-03-26T17:03:59.403Z,9.53
2019-03-26T17:06:49.984Z,9.87
2019-03-26T17:09:49.832Z,8.90
2019-03-26T17:12:41.428Z,9.57
2019-03-26T17:15:13.373Z,9.73
2019-03-26T17:17:45.156Z,9.33
2019-03-26T17:20:57.131Z,9.67
2019-03-26T17:23:54.514Z,9.27
2019-03-26T17:26:48.547Z,9.30
2019-03-26T17:29:40.309Z,9.47
2019-03-26T17:32:31.063Z,8.93
2019-03-26T17:38:39.384Z,8.77
2019-03-26T17:41:17.331Z,9.10
2019-03-26T17:47:03.570Z,9.33
2019-03-26T17:49:36.596Z,8.30
2019-03-26T17:52:29.133Z,8.50
2019-03-26T17:55:20.803Z,8.60
2019-03-26T17:57:52.176Z,7.97
2019-03-26T18:00:49.637Z,8.50
2019-03-26T18:07:14.589Z,8.27
2019-03-26T18:10:05.888Z,8.13
2019-03-26T18:13:00.595Z,7.80
2019-03-26T18:15:53.173Z,8.63
2019-03-26T18:30:47.870Z,7.93
2019-03-26T18:34:06.273Z,8.17
2019-03-26T18:45:41.033Z,8.73
2019-03-26T18:48:50.536Z,7.77
2019-03-26T18:58:17.128Z,9.00
2019-03-26T19:00:58.658Z,8.97
2019-03-26T19:06:29.940Z,7.30
2019-03-26T19:11:57.127Z,13.80
2019-03-26T19:18:21.178Z,7.37
2019-03-26T19:21:15.591Z,6.87
2019-03-26T19:24:10.549Z,7.30
2019-03-26T19:27:19.235Z,8.10
2019-03-26T19:35:46.145Z,8.13
2019-03-26T19:38:20.857Z,7.57
2019-03-26T19:40:53.382Z,7.73
2019-03-26T19:43:28.199Z,7.43
2019-03-26T19:46:03.951Z,7.17
2019-03-26T19:48:48.276Z,8.27
2019-03-26T19:51:52.597Z,8.60
2019-03-26T20:00:19.566Z,8.13
2019-03-26T20:03:16.490Z,7.73
2019-03-26T20:05:50.085Z,7.00
2019-03-26T20:08:24.364Z,7.50
2019-03-26T20:11:15.810Z,7.47
2019-03-26T20:16:45.326Z,7.00
2019-03-26T20:19:39.968Z,7.27
2019-03-26T20:22:57.415Z,6.57
2019-03-26T20:25:51.725Z,6.80
2019-03-26T20:28:44.694Z,7.23
2019-03-26T20:31:25.060Z,6.77
2019-03-26T20:33:59.054Z,7.23
2019-03-26T20:39:11.241Z,7.43
2019-03-26T20:44:23.179Z,7.10
2019-03-26T20:47:00.545Z,6.93
2019-03-26T20:49:35.294Z,7.40
2019-03-26T20:53:29.766Z,6.70
2019-03-26T20:54:49.615Z,7.97
2019-03-26T20:57:41.221Z,7.73
2019-03-26T21:00:14.445Z,7.20
2019-03-26T21:03:05.332Z,9.70
2019-03-26T21:05:43.853Z,6.37
2019-03-26T21:08:34.787Z,6.93
2019-03-26T21:11:13.275Z,6.40
2019-03-26T21:13:51.078Z,6.30
2019-03-26T21:16:40.869Z,7.27
2019-03-26T21:19:17.565Z,6.77
2019-03-26T21:21:49.092Z,6.27
2019-03-26T21:24:40.114Z,6.80
2019-03-26T21:27:31.889Z,7.33
2019-03-26T21:30:27.112Z,7.27
2019-03-26T21:33:01.966Z,6.77
2019-03-26T21:39:31.416Z,7.67
2019-03-26T21:42:43.474Z,7.50
2019-03-26T21:45:56.178Z,7.50
2019-03-26T21:48:42.847Z,7.67
2019-03-26T21:51:18.683Z,7.07
2019-03-26T21:53:55.971Z,7.40
2019-03-26T21:56:35.107Z,7.90
2019-03-26T22:02:43.655Z,7.47
2019-03-26T22:05:31.297Z,7.13
2019-03-26T22:08:21.689Z,6.30
2019-03-26T22:11:12.337Z,7.00
2019-03-26T22:13:48.642Z,6.73
2019-03-26T22:16:40.285Z,7.40
2019-03-26T22:19:30.512Z,6.93
2019-03-26T22:22:02.311Z,7.00
2019-03-26T22:24:36.265Z,6.97
2019-03-26T22:27:28.227Z,7.03
2019-03-26T22:30:00.925Z,7.53
2019-03-26T22:32:52.671Z,8.37
2019-03-26T22:35:43.979Z,7.43
2019-03-26T22:41:31.197Z,7.30
2019-03-26T22:44:03.481Z,7.60
2019-03-26T22:46:42.126Z,7.53
2019-03-26T22:49:14.654Z,6.70
2019-03-26T22:52:05.188Z,7.47
2019-03-26T22:57:29.988Z,8.27
2019-03-26T23:00:20.720Z,7.33
2019-03-26T23:02:52.608Z,7.87
2019-03-26T23:05:42.895Z,7.17
2019-03-26T23:08:14.608Z,7.07
2019-03-26T23:11:33.115Z,7.33
2019-03-26T23:14:06.112Z,7.07
2019-03-26T23:16:37.835Z,7.53
2019-03-26T23:19:34.017Z,7.47
2019-03-26T23:22:24.412Z,6.87
2019-03-26T23:28:17.297Z,6.73
2019-03-26T23:30:50.408Z,6.97
2019-03-26T23:33:42.550Z,6.27
2019-03-26T23:36:15.999Z,7.30
2019-03-26T23:39:27.346Z,6.63
2019-03-26T23:42:17.382Z,6.90
2019-03-26T23:44:58.314Z,7.03
2019-03-26T23:47:45.124Z,6.50
2019-03-26T23:50:17.760Z,6.53
2019-03-26T23:52:49.554Z,6.77
2019-03-26T23:56:14.898Z,6.77
2019-03-26T23:59:05.587Z,6.70
